Time;durP1;ratioP1;P1;durP2;ratioP2;P2;SDS_P1;SDS_P2;PMS_P1;PMS_P2;Temp;Humidity;BMP_temperature;BMP_pressure;BME280_temperature;BME280_humidity;BME280_pressure;Samples;Min_cycle;Max_cycle;Signal;HPM_P1;HPM_P2
2023/05/23 00:01:30;;;;;;;2.90;1.83;;;;;;;23.37;50.25;100525.13;4514640;28;20108;-64
2023/05/23 00:03:41;;;;;;;2.90;2.50;;;;;;;23.38;50.46;100532.53;4514331;28;20200;-64
2023/05/23 00:05:51;;;;;;;2.63;2.42;;;;;;;23.35;51.71;100531.25;4514727;28;20485;-64
2023/05/23 00:08:02;;;;;;;2.42;2.22;;;;;;;23.39;51.92;100534.19;4515052;28;20048;-64
2023/05/23 00:10:13;;;;;;;2.40;2.20;;;;;;;23.39;50.84;100531.28;4515042;28;20029;-64
2023/05/23 00:12:23;;;;;;;2.42;2.22;;;;;;;23.39;51.49;100526.38;4514514;28;20973;-64
2023/05/23 00:14:34;;;;;;;2.97;2.47;;;;;;;23.36;51.65;100527.16;4518583;28;20033;-64
2023/05/23 00:16:48;;;;;;;2.92;2.63;;;;;;;23.37;51.67;100525.91;4513799;28;20042;-64
2023/05/23 00:18:58;;;;;;;2.92;2.40;;;;;;;23.38;51.79;100524.72;4515735;28;20644;-64
2023/05/23 00:21:09;;;;;;;2.92;2.42;;;;;;;23.37;51.70;100528.81;4518116;28;20120;-64
2023/05/23 00:23:20;;;;;;;2.50;2.30;;;;;;;23.39;51.85;100528.41;4506048;28;20496;-64
2023/05/23 00:25:33;;;;;;;2.83;2.30;;;;;;;23.35;51.77;100516.88;4517418;28;20048;-64
2023/05/23 00:27:43;;;;;;;2.55;2.35;;;;;;;23.37;51.52;100525.91;4517955;28;20099;-64
2023/05/23 00:29:53;;;;;;;2.95;2.28;;;;;;;23.37;51.75;100522.22;4518221;28;20518;-64
2023/05/23 00:32:04;;;;;;;2.80;2.58;;;;;;;23.36;51.73;100526.31;4518090;28;20038;-64
2023/05/23 00:34:16;;;;;;;2.63;2.42;;;;;;;23.36;51.76;100532.91;4518258;28;20104;-64
2023/05/23 00:36:27;;;;;;;2.97;2.40;;;;;;;23.34;51.93;100528.78;4516114;28;20084;-64
2023/05/23 00:38:38;;;;;;;2.83;2.58;;;;;;;23.37;51.82;100528.81;4520006;28;20052;-64
2023/05/23 00:40:48;;;;;;;2.70;2.50;;;;;;;23.36;51.99;100527.16;4518470;28;20026;-64
2023/05/23 00:42:59;;;;;;;3.00;2.40;;;;;;;23.32;51.91;100523.41;4517812;28;20066;-65
2023/05/23 00:45:11;;;;;;;2.60;2.40;;;;;;;23.37;51.83;100539.50;4518493;28;20278;-64
2023/05/23 00:47:21;;;;;;;2.85;2.50;;;;;;;23.32;51.94;100526.28;4534690;28;20037;-64
2023/05/23 00:49:32;;;;;;;2.50;2.30;;;;;;;23.34;51.60;100525.91;4517870;28;20029;-64
2023/05/23 00:51:43;;;;;;;2.65;2.45;;;;;;;23.36;51.85;100537.84;4520572;28;20044;-64
2023/05/23 00:53:53;;;;;;;2.50;2.30;;;;;;;23.32;52.04;100532.03;4518099;28;20040;-64
2023/05/23 00:56:04;;;;;;;2.10;1.90;;;;;;;23.33;51.65;100538.63;4513934;28;20394;-64
2023/05/23 00:58:16;;;;;;;1.83;1.73;;;;;;;23.33;50.10;100535.72;4505480;28;20120;-64
2023/05/23 01:00:27;;;;;;;1.73;1.50;;;;;;;23.34;49.61;100541.09;4517061;28;20084;-64
2023/05/23 01:02:44;;;;;;;1.85;1.70;;;;;;;23.35;49.63;100547.69;4506232;28;20080;-64
2023/05/23 01:04:55;;;;;;;2.20;2.00;;;;;;;23.34;51.05;100543.16;4517583;28;20025;-64
2023/05/23 01:07:06;;;;;;;2.00;1.80;;;;;;;23.32;50.85;100542.72;4491818;28;20108;-64
2023/05/23 01:09:17;;;;;;;1.65;1.55;;;;;;;23.33;48.93;100547.25;4517513;28;20033;-64
2023/05/23 01:11:41;;;;;;;2.28;2.08;;;;;;;23.35;50.84;100557.19;4531667;28;20128;-64
2023/05/23 01:13:59;;;;;;;1.80;1.65;;;;;;;23.29;50.88;100547.19;4514747;28;20034;-64
2023/05/23 01:16:18;;;;;;;2.20;2.00;;;;;;;23.32;50.57;100560.84;4505006;28;20042;-64
2023/05/23 01:18:45;;;;;;;1.45;1.30;;;;;;;23.33;49.56;100558.78;4517249;28;20053;-64
2023/05/23 01:21:05;;;;;;;1.20;1.10;;;;;;;23.33;48.29;100553.00;4515797;28;20042;-64
2023/05/23 01:23:37;;;;;;;1.02;0.93;;;;;;;23.31;48.25;100552.56;4523063;28;20091;-64
2023/05/23 01:26:17;;;;;;;1.15;1.00;;;;;;;23.31;47.38;100552.56;4516375;28;20033;-64
2023/05/23 01:28:39;;;;;;;1.00;0.90;;;;;;;23.30;47.14;100548.03;4517529;28;20042;-64
2023/05/23 01:30:56;;;;;;;1.42;1.27;;;;;;;23.30;47.79;100548.88;4515913;28;20530;-64
2023/05/23 01:33:08;;;;;;;1.25;1.17;;;;;;;23.21;47.98;100530.97;4521917;28;20752;-64
2023/05/23 01:35:26;;;;;;;1.40;1.30;;;;;;;23.30;48.32;100556.66;4518065;28;20030;-64
2023/05/23 01:37:37;;;;;;;1.40;1.30;;;;;;;23.28;48.40;100547.56;4523044;28;20041;-64
2023/05/23 01:39:48;;;;;;;1.40;1.30;;;;;;;23.30;49.15;100556.66;4516510;28;20056;-64
2023/05/23 01:41:58;;;;;;;1.40;1.30;;;;;;;23.31;48.23;100559.16;4516722;28;20041;-64
2023/05/23 01:44:10;;;;;;;1.20;1.10;;;;;;;23.29;47.23;100555.03;4518439;28;20061;-64
2023/05/23 01:46:22;;;;;;;1.08;1.00;;;;;;;23.28;46.94;100544.69;4516928;28;20814;-64
2023/05/23 01:48:32;;;;;;;0.98;0.98;;;;;;;23.28;47.24;100553.34;4517570;28;21428;-64
2023/05/23 01:50:46;;;;;;;1.30;1.20;;;;;;;23.29;46.98;100560.78;4518809;28;20053;-64
2023/05/23 01:52:57;;;;;;;1.40;1.30;;;;;;;23.27;47.81;100551.69;4501814;28;20038;-64
2023/05/23 01:55:08;;;;;;;1.50;1.40;;;;;;;23.30;48.05;100568.19;4532016;28;20041;-64
2023/05/23 01:57:20;;;;;;;1.17;1.08;;;;;;;23.26;47.30;100568.13;4515867;28;20026;-64
2023/05/23 01:59:31;;;;;;;1.17;1.08;;;;;;;23.27;47.06;100568.97;4516931;28;20038;-64
2023/05/23 02:01:42;;;;;;;1.13;1.02;;;;;;;23.12;47.04;100555.53;4515772;28;20026;-64
2023/05/23 02:03:52;;;;;;;1.35;1.08;;;;;;;23.24;46.56;100566.84;4500799;28;20040;-64
2023/05/23 02:06:03;;;;;;;1.25;1.15;;;;;;;23.25;46.22;100568.47;4518072;28;20044;-65
2023/05/23 02:08:13;;;;;;;1.25;1.13;;;;;;;23.21;46.99;100564.72;4517371;28;20504;-64
2023/05/23 02:10:24;;;;;;;0.90;0.90;;;;;;;23.18;46.68;100565.50;4518204;28;20092;-64
2023/05/23 02:12:34;;;;;;;1.20;1.10;;;;;;;23.23;46.89;100573.81;4517131;28;20032;-64
2023/05/23 02:14:45;;;;;;;1.58;1.10;;;;;;;23.23;46.57;100580.38;4516126;28;20037;-64
2023/05/23 02:16:56;;;;;;;1.25;1.15;;;;;;;23.04;46.78;100553.75;4515238;28;20131;-64
2023/05/23 02:19:06;;;;;;;1.08;1.00;;;;;;;23.15;46.44;100566.28;4516037;28;20048;-64
2023/05/23 02:21:17;;;;;;;1.10;1.00;;;;;;;23.17;46.62;100578.22;4516145;28;20478;-64
2023/05/23 02:23:27;;;;;;;1.23;1.13;;;;;;;23.17;46.17;100578.22;4515831;28;20030;-64
2023/05/23 02:25:38;;;;;;;1.08;1.00;;;;;;;23.16;46.67;100574.53;4516733;28;20127;-64
2023/05/23 02:27:50;;;;;;;1.20;1.10;;;;;;;23.21;46.70;100582.00;4516383;28;20041;-64
2023/05/23 02:30:00;;;;;;;1.95;1.13;;;;;;;23.15;46.46;100586.44;4516188;28;20513;-64
2023/05/23 02:32:12;;;;;;;2.17;1.00;;;;;;;23.15;46.30;100580.66;4499409;28;20030;-64
2023/05/23 02:34:22;;;;;;;0.93;0.93;;;;;;;23.20;45.81;100574.56;4517659;28;20033;-64
2023/05/23 02:36:33;;;;;;;1.10;1.00;;;;;;;23.19;46.07;100576.63;4515019;28;20172;-64
2023/05/23 02:38:43;;;;;;;1.05;1.02;;;;;;;23.19;46.03;100582.38;4516052;28;20126;-64
2023/05/23 02:40:56;;;;;;;1.15;1.10;;;;;;;23.17;46.01;100575.34;4517204;28;20033;-64
2023/05/23 02:43:07;;;;;;;1.20;1.10;;;;;;;23.19;46.19;100590.19;4514008;28;20049;-64
2023/05/23 02:45:19;;;;;;;1.00;0.93;;;;;;;23.17;46.06;100583.97;4515571;28;20029;-64
2023/05/23 02:47:30;;;;;;;1.00;0.90;;;;;;;23.18;46.33;100583.59;4516275;28;20502;-64
2023/05/23 02:49:40;;;;;;;1.00;1.00;;;;;;;23.20;45.97;100581.16;4514892;28;20068;-64
2023/05/23 02:51:51;;;;;;;0.80;0.80;;;;;;;23.17;46.50;100581.94;4515994;28;20508;-64
2023/05/23 02:54:01;;;;;;;1.08;0.98;;;;;;;23.16;46.72;100576.56;4499650;28;20058;-64
2023/05/23 02:56:14;;;;;;;1.00;1.00;;;;;;;23.19;46.53;100584.44;4514597;28;20108;-64
2023/05/23 02:58:25;;;;;;;1.10;0.80;;;;;;;23.18;46.26;100594.28;4514274;28;20093;-64
2023/05/23 03:00:35;;;;;;;1.20;1.10;;;;;;;23.18;47.23;100582.78;4515655;28;20041;-64
2023/05/23 03:02:46;;;;;;;0.80;0.80;;;;;;;23.17;46.13;100596.34;4516946;28;20683;-64
2023/05/23 03:04:56;;;;;;;0.80;0.80;;;;;;;23.18;46.46;100591.41;4516560;28;20111;-64
2023/05/23 03:07:08;;;;;;;0.93;0.93;;;;;;;23.17;46.14;100592.63;4514687;28;20083;-64
2023/05/23 03:09:19;;;;;;;1.10;1.00;;;;;;;23.18;46.13;100594.28;4517042;28;20593;-64
2023/05/23 03:11:30;;;;;;;0.93;0.93;;;;;;;23.18;46.21;100583.59;4515993;28;20079;-64
2023/05/23 03:13:40;;;;;;;0.95;0.90;;;;;;;23.12;46.27;100578.56;4514612;28;20034;-64
2023/05/23 03:15:50;;;;;;;1.00;0.95;;;;;;;23.17;46.07;100589.72;4516749;28;20037;-64
2023/05/23 03:18:01;;;;;;;0.80;0.80;;;;;;;23.10;46.05;100587.56;4514025;28;20493;-64
2023/05/23 03:20:11;;;;;;;0.90;0.90;;;;;;;23.17;46.25;100604.13;4515249;28;20483;-64
2023/05/23 03:22:22;;;;;;;0.80;0.80;;;;;;;23.15;46.38;100600.81;4531613;28;20083;-64
2023/05/23 03:24:33;;;;;;;0.88;0.88;;;;;;;23.10;46.20;100598.25;4516511;28;20607;-64
2023/05/23 03:26:44;;;;;;;0.98;0.90;;;;;;;23.14;46.25;100602.03;4515268;28;20047;-64
2023/05/23 03:28:55;;;;;;;0.85;0.85;;;;;;;23.12;46.13;100595.84;4516107;28;20468;-64
2023/05/23 03:31:06;;;;;;;1.10;1.00;;;;;;;23.16;46.38;100600.44;4513521;28;20026;-64
2023/05/23 03:33:17;;;;;;;0.95;0.88;;;;;;;23.13;46.21;100598.34;4498169;28;20974;-64
2023/05/23 03:35:27;;;;;;;1.25;0.90;;;;;;;23.15;46.01;100606.59;4514762;28;20044;-63
2023/05/23 03:37:38;;;;;;;1.10;1.00;;;;;;;23.15;46.33;100600.81;4514179;28;20156;-63
2023/05/23 03:39:48;;;;;;;0.85;0.80;;;;;;;23.09;45.91;100591.66;4514157;28;20055;-63
2023/05/23 03:41:59;;;;;;;1.42;1.00;;;;;;;23.15;46.13;100595.06;4503429;28;20339;-63
2023/05/23 03:44:09;;;;;;;0.80;0.80;;;;;;;23.15;46.23;100597.94;4513710;28;20133;-63
2023/05/23 03:46:20;;;;;;;0.90;0.90;;;;;;;23.15;46.16;100593.00;4514319;28;20239;-63
2023/05/23 03:48:30;;;;;;;1.00;0.90;;;;;;;23.16;46.71;100590.97;4515013;28;20759;-64
2023/05/23 03:50:41;;;;;;;1.25;1.15;;;;;;;23.17;46.88;100604.97;4513566;28;20762;-63
2023/05/23 03:52:53;;;;;;;1.10;1.00;;;;;;;23.18;47.93;100597.19;4500514;28;20037;-63
2023/05/23 03:55:04;;;;;;;1.10;1.00;;;;;;;22.98;47.28;100573.38;4531128;28;20032;-63
2023/05/23 03:57:14;;;;;;;1.55;1.10;;;;;;;23.14;47.89;100597.09;4514609;28;20038;-64
2023/05/23 03:59:25;;;;;;;1.33;1.23;;;;;;;23.18;47.94;100600.06;4513813;28;20108;-64
2023/05/23 04:01:36;;;;;;;1.30;1.20;;;;;;;23.02;48.06;100574.28;4514521;28;20473;-64
2023/05/23 04:03:46;;;;;;;1.00;1.00;;;;;;;23.17;47.79;100607.00;4514419;28;20790;-64
2023/05/23 04:05:59;;;;;;;1.90;1.00;;;;;;;22.97;47.76;100576.63;4498697;28;20282;-64
2023/05/23 04:08:10;;;;;;;0.95;0.95;;;;;;;23.16;48.02;100608.25;4514458;28;20125;-64
2023/05/23 04:10:21;;;;;;;1.40;1.00;;;;;;;23.14;47.29;100599.16;4514654;28;20118;-64
2023/05/23 04:12:31;;;;;;;1.17;1.08;;;;;;;23.15;47.53;100612.34;4511436;28;20037;-63
2023/05/23 04:14:43;;;;;;;1.58;1.10;;;;;;;23.01;48.51;100577.50;4514667;28;20115;-64
2023/05/23 04:16:54;;;;;;;0.90;0.90;;;;;;;23.15;49.11;100613.16;4501912;28;20054;-64
2023/05/23 04:19:05;;;;;;;1.20;1.10;;;;;;;23.14;48.68;100610.66;4511102;28;20089;-64
2023/05/23 04:21:18;;;;;;;0.80;0.80;;;;;;;23.14;47.78;100610.66;4513685;28;20111;-64
2023/05/23 04:23:41;;;;;;;0.88;0.88;;;;;;;23.14;47.18;100617.25;4512238;28;20107;-64
2023/05/23 04:25:52;;;;;;;1.00;0.88;;;;;;;23.13;47.88;100609.00;4515675;28;20103;-64
2023/05/23 04:28:09;;;;;;;0.85;0.85;;;;;;;23.15;47.48;100618.09;4513218;28;20085;-64
2023/05/23 04:30:21;;;;;;;1.17;1.00;;;;;;;23.12;47.83;100613.94;4502801;28;20865;-64
2023/05/23 04:32:31;;;;;;;0.93;0.77;;;;;;;23.10;47.74;100609.78;4514028;28;20708;-64
2023/05/23 04:34:43;;;;;;;0.90;0.90;;;;;;;22.99;47.54;100600.94;4513807;28;20450;-64
2023/05/23 04:36:53;;;;;;;1.52;0.88;;;;;;;23.11;47.21;100620.91;4514265;28;20196;-63
2023/05/23 04:39:05;;;;;;;1.20;0.90;;;;;;;23.12;47.38;100619.69;4514543;28;20195;-64
2023/05/23 04:41:22;;;;;;;1.02;0.98;;;;;;;23.13;47.90;100617.66;4515759;28;20139;-63
2023/05/23 04:43:53;;;;;;;1.02;0.90;;;;;;;23.11;47.63;100611.44;4515358;28;20064;-65
2023/05/23 04:46:10;;;;;;;0.90;0.90;;;;;;;23.13;48.59;100620.53;4517017;28;20042;-65
2023/05/23 04:48:26;;;;;;;1.30;1.00;;;;;;;23.10;48.08;100613.47;4515198;28;20088;-64
2023/05/23 04:50:36;;;;;;;1.08;0.98;;;;;;;23.10;48.39;100615.53;4516106;28;20591;-65
2023/05/23 04:52:48;;;;;;;0.90;0.90;;;;;;;23.07;48.30;100617.13;4514456;28;20099;-64
2023/05/23 04:55:00;;;;;;;0.93;0.80;;;;;;;23.10;46.88;100622.09;4515362;28;20052;-65
2023/05/23 04:57:11;;;;;;;0.80;0.80;;;;;;;23.12;47.27;100630.38;4515293;28;20037;-63
2023/05/23 04:59:21;;;;;;;0.90;0.85;;;;;;;23.12;46.66;100630.38;4501796;28;20050;-63
2023/05/23 05:01:39;;;;;;;0.80;0.80;;;;;;;23.09;47.41;100613.84;4511866;28;20513;-63
2023/05/23 05:03:50;;;;;;;0.85;0.73;;;;;;;23.11;47.28;100625.81;4514831;28;20029;-63
2023/05/23 05:06:01;;;;;;;0.85;0.85;;;;;;;23.08;46.97;100623.72;4512382;28;20153;-63
2023/05/23 05:08:13;;;;;;;0.80;0.80;;;;;;;23.05;46.82;100624.50;4505420;28;20109;-64
2023/05/23 05:10:23;;;;;;;1.52;1.00;;;;;;;23.07;46.66;100624.94;4506499;28;20177;-64
2023/05/23 05:12:34;;;;;;;0.80;0.80;;;;;;;23.00;47.06;100616.16;4516810;28;20030;-63
2023/05/23 05:14:44;;;;;;;0.80;0.80;;;;;;;23.08;47.06;100630.31;4516413;28;20034;-64
2023/05/23 05:16:56;;;;;;;0.80;0.80;;;;;;;23.03;46.88;100639.28;4518498;28;20541;-64
2023/05/23 05:19:07;;;;;;;1.13;0.93;;;;;;;23.03;46.96;100633.50;4516526;28;20553;-63
2023/05/23 05:21:17;;;;;;;1.20;1.10;;;;;;;23.07;46.75;100642.22;4516291;28;20030;-64
2023/05/23 05:23:30;;;;;;;1.17;0.90;;;;;;;23.02;46.72;100640.50;4517494;28;20614;-64
2023/05/23 05:25:42;;;;;;;1.25;0.77;;;;;;;23.06;48.62;100640.53;4504829;28;21496;-64
2023/05/23 05:27:52;;;;;;;1.63;1.00;;;;;;;23.02;47.18;100645.41;4518319;28;20025;-64
2023/05/23 05:30:08;;;;;;;0.80;0.80;;;;;;;23.00;47.04;100642.91;4515315;28;20025;-64
2023/05/23 05:32:30;;;;;;;1.20;1.00;;;;;;;23.04;46.93;100640.91;4519339;28;20676;-64
2023/05/23 05:34:42;;;;;;;1.02;1.00;;;;;;;23.04;47.16;100643.00;4516844;28;20037;-64
2023/05/23 05:36:54;;;;;;;1.20;1.10;;;;;;;22.99;47.11;100631.78;4519584;28;20034;-64
2023/05/23 05:39:05;;;;;;;1.23;0.98;;;;;;;23.03;46.93;100649.94;4516860;28;20037;-64
2023/05/23 05:41:16;;;;;;;1.35;1.02;;;;;;;23.04;46.84;100645.88;4516105;28;20033;-64
2023/05/23 05:43:31;;;;;;;1.23;1.10;;;;;;;23.00;47.24;100644.94;4517007;28;20064;-64
2023/05/23 05:45:42;;;;;;;1.30;1.20;;;;;;;23.02;47.18;100642.53;4518255;28;20042;-64
2023/05/23 05:47:52;;;;;;;1.40;1.23;;;;;;;22.95;47.01;100648.13;4521573;28;20065;-63
2023/05/23 05:50:06;;;;;;;1.42;1.30;;;;;;;22.94;47.58;100652.25;4516286;28;20022;-63
2023/05/23 05:52:17;;;;;;;2.20;1.40;;;;;;;22.92;47.45;100638.25;4505096;28;20607;-63
2023/05/23 05:54:27;;;;;;;1.60;1.30;;;;;;;22.90;47.27;100643.53;4516272;28;20056;-63
2023/05/23 05:56:38;;;;;;;1.63;1.48;;;;;;;22.90;47.20;100649.28;4505378;28;20030;-63
2023/05/23 05:58:48;;;;;;;1.27;1.17;;;;;;;22.88;47.61;100645.97;4516508;28;20483;-63
2023/05/23 06:01:00;;;;;;;1.35;1.10;;;;;;;22.80;47.31;100631.84;4521085;28;20761;-63
2023/05/23 06:03:11;;;;;;;1.20;1.10;;;;;;;22.88;47.20;100656.66;4516688;28;20095;-64
2023/05/23 06:05:29;;;;;;;1.52;1.40;;;;;;;22.83;48.41;100648.34;4504951;28;20625;-63
2023/05/23 06:07:40;;;;;;;1.38;1.27;;;;;;;22.86;47.80;100650.44;4515477;28;20120;-63
2023/05/23 06:09:51;;;;;;;1.50;1.40;;;;;;;22.81;47.86;100662.25;4514571;28;20133;-63
2023/05/23 06:12:01;;;;;;;1.45;1.27;;;;;;;22.84;47.65;100659.47;4516452;28;20500;-63
2023/05/23 06:14:12;;;;;;;1.65;1.42;;;;;;;22.85;48.01;100654.53;4514276;28;20042;-63
2023/05/23 06:16:26;;;;;;;1.95;1.50;;;;;;;22.80;47.51;100669.25;4531764;28;20611;-63
2023/05/23 06:18:36;;;;;;;2.40;1.20;;;;;;;22.76;46.92;100659.69;4514721;28;20136;-63
2023/05/23 06:20:47;;;;;;;1.50;1.40;;;;;;;22.77;47.04;100670.00;4515607;28;20612;-63
2023/05/23 06:23:00;;;;;;;1.55;1.40;;;;;;;22.77;46.81;100676.56;4514770;28;20038;-63
2023/05/23 06:25:11;;;;;;;1.50;1.40;;;;;;;22.77;47.12;100667.13;4514955;28;20063;-63
2023/05/23 06:27:22;;;;;;;1.40;1.30;;;;;;;22.79;46.87;100676.19;4515513;28;20498;-63
2023/05/23 06:29:34;;;;;;;3.30;1.60;;;;;;;22.72;46.83;100668.25;4513292;28;20454;-64
2023/05/23 06:31:45;;;;;;;1.75;1.55;;;;;;;22.81;46.77;100677.50;4515305;28;20043;-64
2023/05/23 06:33:55;;;;;;;1.90;1.40;;;;;;;22.83;46.70;100680.00;4515367;28;20668;-63
2023/05/23 06:36:06;;;;;;;1.50;1.40;;;;;;;22.79;46.67;100677.03;4515593;28;20034;-63
2023/05/23 06:38:16;;;;;;;1.85;1.50;;;;;;;22.79;46.70;100684.81;4502817;28;20108;-63
2023/05/23 06:40:27;;;;;;;1.60;1.30;;;;;;;22.72;46.79;100693.31;4515676;28;20107;-63
2023/05/23 06:42:38;;;;;;;1.60;1.50;;;;;;;22.73;46.84;100686.34;4514882;28;20362;-63
2023/05/23 06:44:55;;;;;;;2.00;1.70;;;;;;;22.69;46.89;100685.47;4501060;28;20030;-63
2023/05/23 06:47:06;;;;;;;2.88;1.55;;;;;;;22.72;46.60;100687.56;4520758;28;20119;-63
2023/05/23 06:49:16;;;;;;;2.15;1.80;;;;;;;22.69;46.63;100688.34;4515388;28;20029;-63
2023/05/23 06:51:28;;;;;;;1.88;1.40;;;;;;;22.68;46.97;100684.63;4517746;28;20613;-63
2023/05/23 06:53:39;;;;;;;1.77;1.58;;;;;;;22.72;46.75;100682.63;4514715;28;20072;-63
2023/05/23 06:55:53;;;;;;;1.92;1.70;;;;;;;22.74;46.36;100690.91;4500951;28;20925;-65
2023/05/23 06:58:05;;;;;;;1.98;1.77;;;;;;;22.74;46.65;100693.78;4515647;28;20204;-63
2023/05/23 07:00:17;;;;;;;1.92;1.70;;;;;;;22.79;46.77;100699.22;4516650;28;20064;-63
2023/05/23 07:02:41;;;;;;;2.33;1.77;;;;;;;22.79;46.54;100700.06;4528525;28;20037;-63
2023/05/23 07:04:52;;;;;;;2.20;1.92;;;;;;;22.76;46.24;100703.69;4514886;28;20521;-63
2023/05/23 07:07:22;;;;;;;2.00;1.80;;;;;;;22.76;46.68;100697.09;4503144;28;20091;-63
2023/05/23 07:09:33;;;;;;;2.38;2.17;;;;;;;22.77;46.37;100713.16;4520925;28;20025;-63
2023/05/23 07:11:52;;;;;;;2.10;1.83;;;;;;;22.78;46.34;100717.69;4516679;28;20528;-63
2023/05/23 07:14:03;;;;;;;2.10;1.90;;;;;;;22.75;46.28;100721.34;4517311;28;20021;-64
2023/05/23 07:16:33;;;;;;;1.85;1.65;;;;;;;22.75;46.50;100719.31;4516795;28;20048;-64
2023/05/23 07:18:47;;;;;;;1.80;1.70;;;;;;;22.78;46.76;100718.53;4514171;28;20045;-64
2023/05/23 07:20:57;;;;;;;1.73;1.63;;;;;;;22.75;46.59;100724.22;4515900;28;20099;-64
2023/05/23 07:23:08;;;;;;;1.80;1.63;;;;;;;22.66;46.44;100715.81;4515472;28;20061;-64
2023/05/23 07:25:18;;;;;;;1.00;0.90;;;;;;;22.76;49.79;100723.84;4513706;28;20076;-63
2023/05/23 07:27:29;;;;;;;1.65;1.38;;;;;;;22.81;48.19;100731.31;4504041;28;20371;-63
2023/05/23 07:29:40;;;;;;;0.80;0.80;;;;;;;22.87;49.63;100736.41;4514029;28;20059;-63
2023/05/23 07:31:52;;;;;;;0.93;0.90;;;;;;;22.87;49.71;100736.41;4515852;28;20066;-64
2023/05/23 07:34:03;;;;;;;0.93;0.90;;;;;;;22.85;47.51;100732.25;4500013;28;21176;-64
2023/05/23 07:36:32;;;;;;;1.13;1.00;;;;;;;22.94;46.77;100739.44;4499304;28;20028;-64
2023/05/23 07:38:43;;;;;;;1.33;1.23;;;;;;;22.96;46.99;100747.69;4513291;28;20138;-64
2023/05/23 07:40:53;;;;;;;0.80;0.80;;;;;;;22.95;48.51;100752.63;4514674;28;20533;-64
2023/05/23 07:43:04;;;;;;;1.23;1.13;;;;;;;22.96;48.53;100762.09;4514688;28;20430;-63
2023/05/23 07:45:14;;;;;;;0.88;0.80;;;;;;;22.96;48.71;100771.53;4515094;28;20853;-63
2023/05/23 07:47:27;;;;;;;0.88;0.88;;;;;;;22.94;49.05;100768.22;4496619;28;20045;-64
2023/05/23 07:49:37;;;;;;;0.98;0.98;;;;;;;22.97;49.09;100775.25;4515505;28;20036;-63
2023/05/23 07:51:48;;;;;;;1.20;1.10;;;;;;;22.98;47.86;100776.91;4519700;28;20505;-64
2023/05/23 07:53:58;;;;;;;1.15;1.05;;;;;;;22.93;49.07;100769.41;4513334;28;20037;-63
2023/05/23 07:56:09;;;;;;;1.00;0.88;;;;;;;22.96;49.11;100788.81;4514598;28;20037;-64
2023/05/23 07:58:22;;;;;;;1.10;1.00;;;;;;;22.96;49.50;100783.06;4515027;28;20041;-64
2023/05/23 08:00:35;;;;;;;0.90;0.90;;;;;;;22.97;49.50;100781.88;4501316;28;20037;-63
2023/05/23 08:02:53;;;;;;;0.90;0.90;;;;;;;22.98;48.67;100785.56;4513381;28;20083;-64
2023/05/23 08:05:10;;;;;;;0.90;0.70;;;;;;;22.96;49.22;100782.25;4531449;28;20041;-64
2023/05/23 08:07:21;;;;;;;0.90;0.90;;;;;;;22.99;49.41;100790.13;4515700;28;20600;-63
2023/05/23 08:09:39;;;;;;;0.80;0.80;;;;;;;22.96;49.32;100788.00;4514615;28;20033;-63
2023/05/23 08:11:50;;;;;;;1.00;0.90;;;;;;;22.96;49.17;100790.88;4518724;28;20038;-64
2023/05/23 08:14:01;;;;;;;1.33;0.95;;;;;;;22.96;49.20;100796.63;4514221;28;20033;-63
2023/05/23 08:16:20;;;;;;;1.10;1.00;;;;;;;22.97;48.88;100809.81;4513717;28;20568;-64
2023/05/23 08:18:31;;;;;;;1.00;0.90;;;;;;;22.98;49.83;100812.31;4513679;28;20046;-64
2023/05/23 08:20:42;;;;;;;1.10;1.00;;;;;;;22.84;49.84;100780.34;4498093;28;20030;-64
2023/05/23 08:22:57;;;;;;;0.80;0.73;;;;;;;22.94;48.78;100801.94;4515124;28;20956;-64
2023/05/23 08:25:08;;;;;;;0.80;0.80;;;;;;;22.96;49.59;100805.28;4530882;28;20029;-64
2023/05/23 08:27:39;;;;;;;0.85;0.80;;;;;;;22.91;49.85;100802.69;4510890;28;20053;-64
2023/05/23 08:30:07;;;;;;;0.98;0.98;;;;;;;22.92;49.53;100807.22;4529528;28;20075;-64
2023/05/23 08:32:18;;;;;;;1.00;0.88;;;;;;;22.96;49.63;100811.03;4514388;28;20106;-64
2023/05/23 08:34:29;;;;;;;0.80;0.80;;;;;;;22.97;49.48;100816.41;4513917;28;20232;-64
2023/05/23 08:36:41;;;;;;;1.13;0.75;;;;;;;22.99;49.59;100821.78;4515010;28;20041;-64
2023/05/23 08:38:54;;;;;;;1.38;0.85;;;;;;;22.97;49.44;100825.03;4514960;28;20236;-64
2023/05/23 08:41:18;;;;;;;0.80;0.70;;;;;;;22.98;49.63;100829.56;4514862;28;20038;-64
2023/05/23 08:43:30;;;;;;;0.80;0.80;;;;;;;22.92;49.26;100816.69;4518943;28;20030;-64
2023/05/23 08:45:41;;;;;;;0.88;0.88;;;;;;;22.96;49.33;100826.22;4517448;28;20042;-64
2023/05/23 08:47:54;;;;;;;0.80;0.80;;;;;;;22.96;49.14;100828.31;4516237;28;20804;-64
2023/05/23 08:50:07;;;;;;;0.60;0.60;;;;;;;22.92;49.58;100824.50;4533360;28;20557;-64
2023/05/23 08:52:24;;;;;;;0.70;0.70;;;;;;;22.98;49.56;100837.38;4514742;28;20033;-64
2023/05/23 08:54:37;;;;;;;0.70;0.70;;;;;;;22.97;49.28;100838.59;4506200;28;20042;-64
2023/05/23 08:56:48;;;;;;;1.25;0.90;;;;;;;22.96;49.16;100845.56;4516003;28;20033;-64
2023/05/23 08:58:58;;;;;;;0.73;0.70;;;;;;;22.98;49.49;100851.75;4515789;28;20041;-64
2023/05/23 09:01:12;;;;;;;0.70;0.70;;;;;;;22.99;49.34;100859.22;4516846;28;20136;-64
2023/05/23 09:03:25;;;;;;;0.70;0.70;;;;;;;22.96;49.39;100857.91;4532955;28;20603;-64
2023/05/23 09:05:59;;;;;;;1.00;0.70;;;;;;;22.96;49.16;100859.97;4523142;28;20048;-64
2023/05/23 09:08:10;;;;;;;0.82;0.70;;;;;;;22.94;49.27;100859.50;4516372;28;20037;-64
2023/05/23 09:10:21;;;;;;;0.80;0.70;;;;;;;22.96;49.21;100869.41;4517197;28;20040;-64
2023/05/23 09:12:35;;;;;;;0.70;0.70;;;;;;;22.94;49.29;100866.09;4517163;28;20037;-64
2023/05/23 09:14:45;;;;;;;0.80;0.80;;;;;;;22.95;49.24;100869.78;4504335;28;20104;-64
2023/05/23 09:17:01;;;;;;;0.85;0.70;;;;;;;22.98;49.18;100874.78;4530637;28;20103;-64
2023/05/23 09:19:13;;;;;;;0.95;0.70;;;;;;;22.94;49.19;100876.78;4530924;28;20104;-65
2023/05/23 09:21:26;;;;;;;0.80;0.80;;;;;;;22.95;49.36;100878.44;4516223;28;20833;-64
2023/05/23 09:23:52;;;;;;;0.80;0.80;;;;;;;22.94;49.34;100882.53;4505612;28;20632;-64
2023/05/23 09:26:04;;;;;;;1.00;0.85;;;;;;;22.80;49.45;100864.94;4505961;28;20033;-64
2023/05/23 09:28:14;;;;;;;1.38;0.75;;;;;;;22.95;49.42;100889.94;4503496;28;20773;-65
2023/05/23 09:30:25;;;;;;;0.65;0.65;;;;;;;22.94;49.31;100892.00;4517551;28;20041;-65
2023/05/23 09:32:38;;;;;;;0.70;0.70;;;;;;;22.96;49.40;100903.16;4516726;28;20029;-64
2023/05/23 09:34:57;;;;;;;0.60;0.60;;;;;;;22.96;49.56;100897.38;4507581;28;21275;-64
2023/05/23 09:37:12;;;;;;;0.77;0.77;;;;;;;22.96;49.44;100911.78;4517476;28;20448;-65
2023/05/23 09:39:23;;;;;;;1.48;0.80;;;;;;;22.95;49.54;100901.47;4504836;28;20053;-65
2023/05/23 09:41:34;;;;;;;1.00;0.90;;;;;;;22.84;49.66;100883.94;4516359;28;20760;-65
2023/05/23 09:43:52;;;;;;;0.70;0.70;;;;;;;22.93;49.57;100904.72;4516642;28;20042;-65
2023/05/23 09:46:10;;;;;;;0.88;0.75;;;;;;;22.95;49.59;100908.06;4532539;28;20029;-65
2023/05/23 09:48:38;;;;;;;0.90;0.77;;;;;;;22.96;49.51;100908.91;4515240;28;20042;-65
2023/05/23 09:50:50;;;;;;;0.77;0.77;;;;;;;22.94;49.60;100903.53;4504921;28;20083;-65
2023/05/23 09:53:00;;;;;;;0.70;0.70;;;;;;;22.95;49.89;100899.41;4531326;28;20076;-65
2023/05/23 09:55:11;;;;;;;0.70;0.70;;;;;;;22.90;49.83;100904.63;4517121;28;20556;-64
2023/05/23 09:57:22;;;;;;;0.80;0.68;;;;;;;22.92;49.81;100903.06;4516643;28;20684;-64
2023/05/23 09:59:41;;;;;;;0.70;0.70;;;;;;;22.95;49.75;100913.81;4516968;28;20037;-65
2023/05/23 10:01:56;;;;;;;0.70;0.70;;;;;;;22.95;49.51;100924.50;4516749;28;20507;-65
2023/05/23 10:04:08;;;;;;;0.60;0.50;;;;;;;22.95;49.92;100919.56;4518334;28;20030;-65
2023/05/23 10:06:25;;;;;;;0.70;0.70;;;;;;;22.96;49.67;100927.00;4516118;28;20512;-66
2023/05/23 10:08:42;;;;;;;0.65;0.65;;;;;;;22.91;49.68;100921.53;4515332;28;20540;-64
2023/05/23 10:10:55;;;;;;;1.00;0.80;;;;;;;22.96;50.04;100926.19;4514401;28;20030;-65
2023/05/23 10:13:06;;;;;;;1.08;0.80;;;;;;;22.94;50.13;100928.59;4516113;28;20150;-65
2023/05/23 10:15:17;;;;;;;0.82;0.70;;;;;;;22.96;49.89;100931.94;4515387;28;20048;-65
2023/05/23 10:18:05;;;;;;;0.60;0.60;;;;;;;22.95;50.16;100945.47;4516290;28;20126;-65